createdAt,value
2022-11-03T00:04:21.176Z,9.01
2022-11-03T00:10:44.199Z,8.99
2022-11-03T00:17:04.200Z,8.98
2022-11-03T00:23:27.205Z,8.98
2022-11-03T00:29:47.264Z,8.98
2022-11-03T00:36:10.169Z,8.98
2022-11-03T00:42:30.284Z,8.96
2022-11-03T00:48:53.229Z,8.93
2022-11-03T00:55:13.255Z,8.94
2022-11-03T01:01:39.342Z,8.95
2022-11-03T01:07:56.201Z,8.97
2022-11-03T01:14:19.226Z,9.02
2022-11-03T01:20:39.168Z,9.04
2022-11-03T01:27:02.237Z,9.11
2022-11-03T01:33:22.236Z,9.21
2022-11-03T01:39:45.230Z,9.28
2022-11-03T01:46:05.190Z,9.34
2022-11-03T01:52:28.216Z,9.38
2022-11-03T01:58:48.236Z,9.4
2022-11-03T02:05:11.195Z,9.4
2022-11-03T02:11:31.204Z,9.4
2022-11-03T02:17:54.168Z,9.44
2022-11-03T02:24:14.214Z,9.48
2022-11-03T02:30:37.196Z,9.55
2022-11-03T02:36:57.229Z,9.58
2022-11-03T02:43:20.233Z,9.57
2022-11-03T02:49:40.187Z,9.58
2022-11-03T02:56:03.235Z,9.63
2022-11-03T03:02:23.225Z,9.63
2022-11-03T03:08:46.216Z,9.62
2022-11-03T03:15:06.229Z,9.65
2022-11-03T03:21:29.199Z,9.68
2022-11-03T03:27:49.213Z,9.69
2022-11-03T03:34:23.985Z,9.69
2022-11-03T03:40:32.207Z,9.73
2022-11-03T03:46:55.184Z,9.79
2022-11-03T03:53:15.182Z,9.81
2022-11-03T03:59:38.196Z,9.77
2022-11-03T04:05:58.201Z,9.73
2022-11-03T04:12:21.175Z,9.66
2022-11-03T04:18:41.165Z,9.63
2022-11-03T04:36:30.146Z,9.51
2022-11-03T04:42:50.152Z,9.46
2022-11-03T04:49:13.182Z,9.41
2022-11-03T04:55:33.191Z,9.38
2022-11-03T05:01:56.248Z,9.36
2022-11-03T05:08:16.215Z,9.36
2022-11-03T05:14:39.189Z,9.35
2022-11-03T05:20:59.250Z,9.38
2022-11-03T05:27:22.171Z,9.42
2022-11-03T05:33:42.204Z,9.47
2022-11-03T05:40:05.213Z,9.53
2022-11-03T05:46:25.186Z,9.56
2022-11-03T05:52:48.226Z,9.63
2022-11-03T05:59:08.209Z,9.7
2022-11-03T06:05:31.173Z,9.76
2022-11-03T06:11:51.266Z,9.82
2022-11-03T06:18:14.150Z,9.85
2022-11-03T06:24:34.173Z,9.86
2022-11-03T06:30:57.181Z,9.86
2022-11-03T06:37:17.169Z,9.85
2022-11-03T06:43:40.204Z,9.9
2022-11-03T06:50:00.192Z,9.98
2022-11-03T06:56:23.219Z,10.08
2022-11-03T07:02:43.271Z,10.17
2022-11-03T07:09:06.409Z,10.22
2022-11-03T07:15:26.397Z,10.23
2022-11-03T07:21:49.202Z,10.21
2022-11-03T07:28:09.404Z,10.21
2022-11-03T07:34:32.190Z,10.21
2022-11-03T07:40:52.206Z,10.24
2022-11-03T07:47:15.337Z,10.38
2022-11-03T07:53:35.201Z,10.61
2022-11-03T07:59:58.517Z,10.88
2022-11-03T08:06:19.734Z,11.18
2022-11-03T08:12:41.209Z,11.49
2022-11-03T08:19:01.187Z,11.76
2022-11-03T08:25:24.248Z,11.94
2022-11-03T08:31:44.214Z,12.05
2022-11-03T08:38:07.432Z,12.2
2022-11-03T08:44:27.231Z,12.38
2022-11-03T08:50:50.202Z,12.55
2022-11-03T08:57:10.176Z,12.78
2022-11-03T09:03:33.314Z,13.03
2022-11-03T09:16:16.197Z,13.45
2022-11-03T09:22:36.198Z,13.61
2022-11-03T09:28:59.195Z,13.75
2022-11-03T09:52:21.718Z,13.92
2022-11-03T09:58:41.152Z,13.92
2022-11-03T10:05:08.352Z,13.91
2022-11-03T10:11:24.193Z,13.92
2022-11-03T10:17:47.157Z,13.92
2022-11-03T10:24:07.227Z,13.92
2022-11-03T10:30:36.196Z,13.9
2022-11-03T10:36:50.741Z,13.94
2022-11-03T10:43:13.183Z,13.99
2022-11-03T10:49:33.975Z,14.07
2022-11-03T10:55:56.209Z,14.15
2022-11-03T11:02:16.328Z,14.19
2022-11-03T11:08:39.280Z,14.23
2022-11-03T11:14:59.223Z,14.22
2022-11-03T11:21:22.170Z,14.16
2022-11-03T11:27:42.237Z,14.17
2022-11-03T11:34:05.168Z,14.16
2022-11-03T11:40:25.191Z,14.14
2022-11-03T11:46:48.270Z,14.16
2022-11-03T11:53:08.508Z,14.09
2022-11-03T11:59:31.232Z,13.95
2022-11-03T12:05:51.232Z,13.76
2022-11-03T12:12:14.237Z,13.63
2022-11-03T12:18:39.061Z,13.56
2022-11-03T12:24:57.210Z,13.52
2022-11-03T12:31:17.222Z,13.52
2022-11-03T12:37:40.183Z,13.53
2022-11-03T12:44:00.704Z,13.53
2022-11-03T12:50:23.205Z,13.53
2022-11-03T12:56:43.200Z,13.52
2022-11-03T13:03:06.792Z,13.52
2022-11-03T13:09:26.280Z,13.51
2022-11-03T13:15:49.420Z,13.51
2022-11-03T13:22:09.212Z,13.47
2022-11-03T13:28:32.171Z,13.44
2022-11-03T13:34:52.171Z,13.42
2022-11-03T13:41:15.197Z,13.44
2022-11-03T13:48:10.446Z,13.43
2022-11-03T14:00:18.222Z,13.39
2022-11-03T14:06:41.214Z,13.35
2022-11-03T14:13:01.154Z,13.3
2022-11-03T14:19:28.739Z,13.28
2022-11-03T14:25:44.148Z,13.25
2022-11-03T14:32:07.172Z,13.23
2022-11-03T14:38:27.252Z,13.21
2022-11-03T14:44:50.319Z,13.24
2022-11-03T15:01:16.229Z,13.17
2022-11-03T15:07:36.128Z,13.08
2022-11-03T15:13:59.141Z,12.89
2022-11-03T15:20:19.200Z,12.74
2022-11-03T15:26:42.176Z,12.57
2022-11-03T15:33:02.292Z,12.39
2022-11-03T15:39:25.229Z,12.29
2022-11-03T15:45:45.317Z,12.18
2022-11-03T15:52:08.281Z,12.07
2022-11-03T15:58:28.240Z,12.02
2022-11-03T16:04:51.334Z,11.99
2022-11-03T16:11:11.481Z,11.96
2022-11-03T16:17:34.217Z,11.94
2022-11-03T16:23:54.237Z,11.99
2022-11-03T16:30:17.176Z,12.07
2022-11-03T16:36:37.254Z,12.17
2022-11-03T16:43:00.165Z,12.27
2022-11-03T16:49:20.223Z,12.32
2022-11-03T16:55:43.206Z,12.35
2022-11-03T17:02:03.260Z,12.37
2022-11-03T17:08:51.053Z,12.4
2022-11-03T17:14:46.203Z,12.41
2022-11-03T17:21:09.193Z,12.4
2022-11-03T17:27:29.198Z,12.38
2022-11-03T17:33:52.190Z,12.39
2022-11-03T17:40:12.190Z,12.39
2022-11-03T17:46:35.162Z,12.37
2022-11-03T17:52:55.201Z,12.38
2022-11-03T17:59:18.181Z,12.41
2022-11-03T18:05:38.153Z,12.46
2022-11-03T18:12:01.232Z,12.52
2022-11-03T18:18:21.158Z,12.58
2022-11-03T18:24:44.223Z,12.62
2022-11-03T18:31:04.185Z,12.62
2022-11-03T18:37:27.149Z,12.61
2022-11-03T18:43:47.204Z,12.59
2022-11-03T18:50:10.171Z,12.59
2022-11-03T18:56:32.842Z,12.57
2022-11-03T19:02:53.194Z,12.51
2022-11-03T19:09:13.173Z,12.43
2022-11-03T19:15:36.174Z,12.34
2022-11-03T19:21:56.147Z,12.24
2022-11-03T19:28:19.169Z,12.14
2022-11-03T19:34:39.199Z,12.08
2022-11-03T19:41:02.165Z,12.03
2022-11-03T19:47:22.221Z,12
2022-11-03T20:12:07.605Z,11.92
2022-11-03T20:18:27.197Z,11.86
2022-11-03T20:24:50.191Z,11.81
2022-11-03T20:31:10.188Z,11.78
2022-11-03T20:37:33.157Z,11.76
2022-11-03T20:43:53.206Z,11.73
2022-11-03T20:50:16.197Z,11.72
2022-11-03T20:56:36.189Z,11.72
2022-11-03T21:02:59.183Z,11.72
2022-11-03T21:09:19.179Z,11.71
2022-11-03T21:15:57.690Z,11.68
2022-11-03T21:22:02.164Z,11.68
2022-11-03T21:28:25.217Z,11.65
2022-11-03T21:34:45.185Z,11.65
2022-11-03T21:41:08.147Z,11.65
2022-11-03T21:47:28.211Z,11.63
2022-11-03T21:53:51.151Z,11.65
2022-11-03T22:00:11.205Z,11.69
2022-11-03T22:06:34.204Z,11.73
2022-11-03T22:12:54.151Z,11.76
2022-11-03T22:19:17.235Z,11.75
2022-11-03T22:25:37.224Z,11.74
2022-11-03T22:32:00.282Z,11.73
2022-11-03T22:38:20.194Z,11.75
2022-11-03T22:44:43.189Z,11.76
2022-11-03T22:51:03.188Z,11.77
2022-11-03T22:57:26.195Z,11.78
2022-11-03T23:20:24.180Z,11.52
2022-11-03T23:26:44.137Z,11.5
2022-11-03T23:33:07.503Z,11.45
2022-11-03T23:39:27.161Z,11.41
2022-11-03T23:45:50.170Z,11.38
2022-11-03T23:52:10.190Z,11.39
2022-11-03T23:58:33.258Z,11.4
